sensor_id;sensor_type;location;lat;lon;timestamp;pressure;altitude;pressure_sealevel;temperature;humidity
29839;BME280;18669;53.356;-1.464;2022-08-01T00:00:43;100932.75;;;17.53;100.00
29839;BME280;18669;53.356;-1.464;2022-08-01T00:03:09;100925.75;;;17.50;100.00
29839;BME280;18669;53.356;-1.464;2022-08-01T00:05:36;100920.53;;;17.49;100.00
29839;BME280;18669;53.356;-1.464;2022-08-01T00:08:02;100914.63;;;17.42;100.00
29839;BME280;18669;53.356;-1.464;2022-08-01T00:10:28;100914.03;;;17.35;100.00
29839;BME280;18669;53.356;-1.464;2022-08-01T00:12:55;100911.31;;;17.37;100.00
29839;BME280;18669;53.356;-1.464;2022-08-01T00:15:21;100919.06;;;17.41;100.00
29839;BME280;18669;53.356;-1.464;2022-08-01T00:17:47;100927.94;;;17.42;100.00
29839;BME280;18669;53.356;-1.464;2022-08-01T00:20:14;100926.78;;;17.48;100.00
29839;BME280;18669;53.356;-1.464;2022-08-01T00:22:40;100922.75;;;17.39;100.00
29839;BME280;18669;53.356;-1.464;2022-08-01T00:25:06;100918.94;;;17.44;100.00
29839;BME280;18669;53.356;-1.464;2022-08-01T00:27:32;100926.34;;;17.38;100.00
29839;BME280;18669;53.356;-1.464;2022-08-01T00:29:59;100922.75;;;17.39;100.00
29839;BME280;18669;53.356;-1.464;2022-08-01T00:32:25;100928.78;;;17.42;100.00
29839;BME280;18669;53.356;-1.464;2022-08-01T00:34:51;100928.72;;;17.44;100.00
29839;BME280;18669;53.356;-1.464;2022-08-01T00:37:17;100923.47;;;17.42;100.00
29839;BME280;18669;53.356;-1.464;2022-08-01T00:39:43;100921.88;;;17.38;100.00
29839;BME280;18669;53.356;-1.464;2022-08-01T00:42:11;100917.06;;;17.47;100.00
29839;BME280;18669;53.356;-1.464;2022-08-01T00:44:38;100924.47;;;17.40;100.00
29839;BME280;18669;53.356;-1.464;2022-08-01T00:47:05;100927.44;;;17.32;100.00
29839;BME280;18669;53.356;-1.464;2022-08-01T00:49:32;100927.44;;;17.32;100.00
29839;BME280;18669;53.356;-1.464;2022-08-01T00:52:00;100924.75;;;17.34;100.00
29839;BME280;18669;53.356;-1.464;2022-08-01T00:54:27;100917.16;;;17.24;100.00
29839;BME280;18669;53.356;-1.464;2022-08-01T00:56:54;100926.72;;;17.28;100.00
29839;BME280;18669;53.356;-1.464;2022-08-01T00:59:21;100920.47;;;17.29;100.00
29839;BME280;18669;53.356;-1.464;2022-08-01T01:01:48;100920.09;;;17.18;100.00
29839;BME280;18669;53.356;-1.464;2022-08-01T01:04:15;100931.78;;;17.14;100.00
29839;BME280;18669;53.356;-1.464;2022-08-01T01:07:09;100929.66;;;17.22;100.00
29839;BME280;18669;53.356;-1.464;2022-08-01T01:09:52;100927.78;;;17.24;100.00
29839;BME280;18669;53.356;-1.464;2022-08-01T01:12:47;100926.72;;;17.28;100.00
29839;BME280;18669;53.356;-1.464;2022-08-01T01:15:36;100927.00;;;17.22;100.00
29839;BME280;18669;53.356;-1.464;2022-08-01T01:26:31;100928.00;;;16.99;100.00
29839;BME280;18669;53.356;-1.464;2022-08-01T01:29:17;100924.59;;;17.16;100.00
29839;BME280;18669;53.356;-1.464;2022-08-01T01:32:04;100925.69;;;17.12;100.00
29839;BME280;18669;53.356;-1.464;2022-08-01T01:34:35;100939.97;;;17.09;100.00
29839;BME280;18669;53.356;-1.464;2022-08-01T01:37:06;100936.72;;;17.03;100.00
29839;BME280;18669;53.356;-1.464;2022-08-01T01:39:35;100929.00;;;16.96;100.00
29839;BME280;18669;53.356;-1.464;2022-08-01T01:42:04;100927.69;;;17.07;100.00
29839;BME280;18669;53.356;-1.464;2022-08-01T01:44:31;100931.69;;;16.95;100.00
29839;BME280;18669;53.356;-1.464;2022-08-01T01:46:59;100926.88;;;17.05;100.00
29839;BME280;18669;53.356;-1.464;2022-08-01T01:49:27;100931.69;;;16.95;100.00
29839;BME280;18669;53.356;-1.464;2022-08-01T01:51:56;100934.41;;;16.93;100.00
29839;BME280;18669;53.356;-1.464;2022-08-01T01:54:25;100923.06;;;16.90;100.00
29839;BME280;18669;53.356;-1.464;2022-08-01T01:56:58;100929.84;;;16.97;100.00
29839;BME280;18669;53.356;-1.464;2022-08-01T01:59:27;100927.19;;;16.97;100.00
29839;BME280;18669;53.356;-1.464;2022-08-01T02:01:55;100922.00;;;16.94;100.00
29839;BME280;18669;53.356;-1.464;2022-08-01T02:04:22;100916.25;;;16.82;100.00
29839;BME280;18669;53.356;-1.464;2022-08-01T02:06:51;100919.34;;;16.94;100.00
29839;BME280;18669;53.356;-1.464;2022-08-01T02:09:20;100916.44;;;17.00;100.00
29839;BME280;18669;53.356;-1.464;2022-08-01T02:11:47;100917.34;;;16.99;100.00
29839;BME280;18669;53.356;-1.464;2022-08-01T02:14:15;100919.97;;;17.00;100.00
29839;BME280;18669;53.356;-1.464;2022-08-01T02:16:47;100914.53;;;17.04;100.00
29839;BME280;18669;53.356;-1.464;2022-08-01T02:19:14;100916.59;;;16.95;100.00
29839;BME280;18669;53.356;-1.464;2022-08-01T02:22:02;100917.22;;;17.02;100.00
29839;BME280;18669;53.356;-1.464;2022-08-01T02:27:11;100918.97;;;16.81;100.00
29839;BME280;18669;53.356;-1.464;2022-08-01T02:29:52;100918.94;;;16.82;100.00
29839;BME280;18669;53.356;-1.464;2022-08-01T02:32:30;100909.34;;;16.78;100.00
29839;BME280;18669;53.356;-1.464;2022-08-01T02:35:00;100911.94;;;16.80;100.00
29839;BME280;18669;53.356;-1.464;2022-08-01T02:37:29;100907.63;;;16.77;100.00
29839;BME280;18669;53.356;-1.464;2022-08-01T02:39:58;100904.16;;;16.75;100.00
29839;BME280;18669;53.356;-1.464;2022-08-01T02:42:28;100897.91;;;16.76;100.00
29839;BME280;18669;53.356;-1.464;2022-08-01T02:44:57;100897.91;;;16.76;100.00
29839;BME280;18669;53.356;-1.464;2022-08-01T02:47:25;100891.94;;;16.71;100.00
29839;BME280;18669;53.356;-1.464;2022-08-01T02:49:53;100898.19;;;16.70;100.00
29839;BME280;18669;53.356;-1.464;2022-08-01T02:52:21;100895.84;;;16.62;100.00
29839;BME280;18669;53.356;-1.464;2022-08-01T02:54:56;100897.63;;;16.62;100.00
29839;BME280;18669;53.356;-1.464;2022-08-01T02:57:24;100897.81;;;16.57;100.00
29839;BME280;18669;53.356;-1.464;2022-08-01T02:59:53;100903.09;;;16.59;100.00
29839;BME280;18669;53.356;-1.464;2022-08-01T03:02:22;100904.94;;;16.57;100.00
29839;BME280;18669;53.356;-1.464;2022-08-01T03:04:50;100909.56;;;16.51;100.00
29839;BME280;18669;53.356;-1.464;2022-08-01T03:07:18;100915.00;;;16.48;100.00
29839;BME280;18669;53.356;-1.464;2022-08-01T03:09:45;100921.41;;;16.43;100.00
29839;BME280;18669;53.356;-1.464;2022-08-01T03:12:20;100916.53;;;16.54;100.00
29839;BME280;18669;53.356;-1.464;2022-08-01T03:14:49;100913.28;;;16.47;100.00
29839;BME280;18669;53.356;-1.464;2022-08-01T03:17:19;100920.13;;;16.53;100.00
29839;BME280;18669;53.356;-1.464;2022-08-01T03:19:48;100911.22;;;16.54;100.00
29839;BME280;18669;53.356;-1.464;2022-08-01T03:22:15;100901.72;;;16.48;100.00
29839;BME280;18669;53.356;-1.464;2022-08-01T03:24:42;100904.06;;;16.56;100.00
29839;BME280;18669;53.356;-1.464;2022-08-01T03:27:10;100908.78;;;16.49;100.00
29839;BME280;18669;53.356;-1.464;2022-08-01T03:29:38;100914.78;;;16.54;100.00
29839;BME280;18669;53.356;-1.464;2022-08-01T03:32:06;100906.13;;;16.49;100.00
29839;BME280;18669;53.356;-1.464;2022-08-01T03:34:32;100909.03;;;16.43;100.00
29839;BME280;18669;53.356;-1.464;2022-08-01T03:37:07;100896.06;;;16.58;100.00
29839;BME280;18669;53.356;-1.464;2022-08-01T03:39:44;100907.41;;;16.61;100.00
29839;BME280;18669;53.356;-1.464;2022-08-01T03:42:16;100897.91;;;16.55;100.00
29839;BME280;18669;53.356;-1.464;2022-08-01T03:44:48;100895.41;;;16.51;100.00
29839;BME280;18669;53.356;-1.464;2022-08-01T03:47:21;100898.28;;;16.46;100.00
29839;BME280;18669;53.356;-1.464;2022-08-01T03:49:52;100907.63;;;16.34;100.00
29839;BME280;18669;53.356;-1.464;2022-08-01T03:52:20;100899.19;;;16.23;100.00
29839;BME280;18669;53.356;-1.464;2022-08-01T03:54:49;100896.34;;;16.28;100.00
29839;BME280;18669;53.356;-1.464;2022-08-01T03:57:18;100895.94;;;16.16;100.00
29839;BME280;18669;53.356;-1.464;2022-08-01T03:59:45;100901.47;;;16.10;100.00
29839;BME280;18669;53.356;-1.464;2022-08-01T04:02:12;100896.19;;;16.10;100.00
29839;BME280;18669;53.356;-1.464;2022-08-01T04:04:40;100899.38;;;15.96;100.00
29839;BME280;18669;53.356;-1.464;2022-08-01T04:07:29;100897.34;;;16.03;100.00
29839;BME280;18669;53.356;-1.464;2022-08-01T04:09:55;100908.88;;;15.78;100.00
29839;BME280;18669;53.356;-1.464;2022-08-01T04:12:23;100905.63;;;15.70;100.00
29839;BME280;18669;53.356;-1.464;2022-08-01T04:14:49;100900.63;;;15.62;100.00
29839;BME280;18669;53.356;-1.464;2022-08-01T04:17:16;100898.09;;;15.59;100.00
29839;BME280;18669;53.356;-1.464;2022-08-01T04:19:43;100895.03;;;15.46;100.00
29839;BME280;18669;53.356;-1.464;2022-08-01T04:22:10;100893.53;;;15.39;100.00
29839;BME280;18669;53.356;-1.464;2022-08-01T04:24:38;100891.16;;;15.31;100.00
29839;BME280;18669;53.356;-1.464;2022-08-01T04:27:09;100886.00;;;15.26;100.00
29839;BME280;18669;53.356;-1.464;2022-08-01T04:29:36;100888.34;;;15.10;100.00
29839;BME280;18669;53.356;-1.464;2022-08-01T04:32:05;100886.50;;;15.12;100.00
29839;BME280;18669;53.356;-1.464;2022-08-01T04:34:33;100883.25;;;15.04;100.00
29839;BME280;18669;53.356;-1.464;2022-08-01T04:37:01;100890.53;;;14.99;100.00
29839;BME280;18669;53.356;-1.464;2022-08-01T04:39:31;100889.53;;;15.01;100.00
29839;BME280;18669;53.356;-1.464;2022-08-01T04:42:00;100895.53;;;15.06;100.00
29839;BME280;18669;53.356;-1.464;2022-08-01T04:44:29;100886.34;;;14.91;100.00
29839;BME280;18669;53.356;-1.464;2022-08-01T04:47:02;100886.72;;;15.06;100.00
29839;BME280;18669;53.356;-1.464;2022-08-01T04:49:32;100894.72;;;15.04;100.00
29839;BME280;18669;53.356;-1.464;2022-08-01T04:51:58;100899.63;;;14.90;100.00
29839;BME280;18669;53.356;-1.464;2022-08-01T04:54:27;100894.09;;;14.98;100.00
29839;BME280;18669;53.356;-1.464;2022-08-01T04:56:54;100893.41;;;14.91;100.00
29839;BME280;18669;53.356;-1.464;2022-08-01T04:59:30;100894.22;;;14.93;100.00
29839;BME280;18669;53.356;-1.464;2022-08-01T05:04:36;100897.88;;;14.90;100.00
29839;BME280;18669;53.356;-1.464;2022-08-01T05:07:04;100901.13;;;14.99;100.00
29839;BME280;18669;53.356;-1.464;2022-08-01T05:09:30;100901.31;;;14.93;100.00
29839;BME280;18669;53.356;-1.464;2022-08-01T05:11:59;100898.41;;;15.00;100.00
29839;BME280;18669;53.356;-1.464;2022-08-01T05:14:27;100904.78;;;14.95;100.00
29839;BME280;18669;53.356;-1.464;2022-08-01T05:16:54;100902.06;;;14.96;100.00
29839;BME280;18669;53.356;-1.464;2022-08-01T05:19:20;100906.00;;;14.84;100.00
29839;BME280;18669;53.356;-1.464;2022-08-01T05:21:47;100907.56;;;14.90;100.00
29839;BME280;18669;53.356;-1.464;2022-08-01T05:24:14;100907.53;;;14.91;100.00
29839;BME280;18669;53.356;-1.464;2022-08-01T05:26:40;100910.31;;;15.14;100.00
29839;BME280;18669;53.356;-1.464;2022-08-01T05:29:06;100910.84;;;14.98;100.00
29839;BME280;18669;53.356;-1.464;2022-08-01T05:31:32;100902.72;;;15.03;100.00
29839;BME280;18669;53.356;-1.464;2022-08-01T05:34:01;100902.72;;;15.03;100.00
29839;BME280;18669;53.356;-1.464;2022-08-01T05:36:27;100911.47;;;15.05;100.00
29839;BME280;18669;53.356;-1.464;2022-08-01T05:38:54;100906.25;;;15.03;100.00
29839;BME280;18669;53.356;-1.464;2022-08-01T05:41:20;100911.56;;;15.29;100.00
29839;BME280;18669;53.356;-1.464;2022-08-01T05:43:46;100914.72;;;15.13;100.00
29839;BME280;18669;53.356;-1.464;2022-08-01T05:46:12;100916.34;;;15.17;100.00
29839;BME280;18669;53.356;-1.464;2022-08-01T05:48:41;100920.03;;;15.39;100.00
29839;BME280;18669;53.356;-1.464;2022-08-01T05:51:08;100917.41;;;15.37;100.00
29839;BME280;18669;53.356;-1.464;2022-08-01T05:53:34;100915.50;;;15.66;100.00
29839;BME280;18669;53.356;-1.464;2022-08-01T05:56:00;100923.00;;;15.55;100.00
29839;BME280;18669;53.356;-1.464;2022-08-01T05:58:27;100922.66;;;15.64;100.00
29839;BME280;18669;53.356;-1.464;2022-08-01T06:00:53;100920.53;;;15.74;100.00
29839;BME280;18669;53.356;-1.464;2022-08-01T06:03:20;100911.44;;;15.79;100.00
29839;BME280;18669;53.356;-1.464;2022-08-01T06:05:46;100922.53;;;16.15;100.00
29839;BME280;18669;53.356;-1.464;2022-08-01T06:08:12;100919.34;;;16.06;100.00
29839;BME280;18669;53.356;-1.464;2022-08-01T06:10:38;100933.97;;;16.39;100.00
29839;BME280;18669;53.356;-1.464;2022-08-01T06:13:06;100936.94;;;16.31;100.00
29839;BME280;18669;53.356;-1.464;2022-08-01T06:15:32;100936.50;;;16.42;100.00
29839;BME280;18669;53.356;-1.464;2022-08-01T06:17:58;100937.19;;;16.47;100.00
29839;BME280;18669;53.356;-1.464;2022-08-01T06:20:25;100936.88;;;16.55;100.00
29839;BME280;18669;53.356;-1.464;2022-08-01T06:22:51;100924.06;;;16.65;100.00
29839;BME280;18669;53.356;-1.464;2022-08-01T06:25:18;100930.41;;;16.83;100.00
29839;BME280;18669;53.356;-1.464;2022-08-01T06:27:44;100927.56;;;16.88;100.00
29839;BME280;18669;53.356;-1.464;2022-08-01T06:30:10;100926.25;;;16.98;100.00
29839;BME280;18669;53.356;-1.464;2022-08-01T06:32:37;100935.69;;;17.05;100.00
29839;BME280;18669;53.356;-1.464;2022-08-01T06:35:04;100939.50;;;17.20;100.00
29839;BME280;18669;53.356;-1.464;2022-08-01T06:37:32;100936.31;;;17.33;100.00
29839;BME280;18669;53.356;-1.464;2022-08-01T06:42:29;100933.16;;;17.43;100.00
29839;BME280;18669;53.356;-1.464;2022-08-01T06:44:57;100922.03;;;17.54;100.00
29839;BME280;18669;53.356;-1.464;2022-08-01T06:47:23;100924.50;;;17.59;100.00
29839;BME280;18669;53.356;-1.464;2022-08-01T06:49:49;100936.00;;;17.59;100.00
29839;BME280;18669;53.356;-1.464;2022-08-01T06:52:15;100936.34;;;17.52;100.00
29839;BME280;18669;53.356;-1.464;2022-08-01T06:54:41;100922.53;;;17.43;100.00
29839;BME280;18669;53.356;-1.464;2022-08-01T06:57:07;100924.19;;;17.46;100.00
29839;BME280;18669;53.356;-1.464;2022-08-01T06:59:33;100934.13;;;17.62;100.00
29839;BME280;18669;53.356;-1.464;2022-08-01T07:02:00;100929.06;;;17.76;100.00
29839;BME280;18669;53.356;-1.464;2022-08-01T07:04:28;100932.28;;;17.83;100.00
29839;BME280;18669;53.356;-1.464;2022-08-01T07:06:55;100925.00;;;17.86;100.00
29839;BME280;18669;53.356;-1.464;2022-08-01T07:09:21;100929.91;;;17.96;100.00
29839;BME280;18669;53.356;-1.464;2022-08-01T07:11:47;100927.16;;;17.99;100.00
29839;BME280;18669;53.356;-1.464;2022-08-01T07:14:13;100926.91;;;18.03;100.00
29839;BME280;18669;53.356;-1.464;2022-08-01T07:16:39;100923.25;;;18.06;100.00
29839;BME280;18669;53.356;-1.464;2022-08-01T07:19:05;100920.31;;;18.12;100.00
29839;BME280;18669;53.356;-1.464;2022-08-01T07:21:31;100924.13;;;18.07;100.00
29839;BME280;18669;53.356;-1.464;2022-08-01T07:23:58;100917.28;;;18.01;100.00
29839;BME280;18669;53.356;-1.464;2022-08-01T07:26:24;100924.13;;;18.07;100.00
29839;BME280;18669;53.356;-1.464;2022-08-01T07:28:51;100932.97;;;18.07;100.00
29839;BME280;18669;53.356;-1.464;2022-08-01T07:31:17;100928.44;;;18.09;100.00
29839;BME280;18669;53.356;-1.464;2022-08-01T07:33:43;100924.84;;;18.10;100.00
29839;BME280;18669;53.356;-1.464;2022-08-01T07:36:09;100931.44;;;18.01;98.78
29839;BME280;18669;53.356;-1.464;2022-08-01T07:38:35;100928.19;;;17.95;100.00
29839;BME280;18669;53.356;-1.464;2022-08-01T07:41:02;100937.38;;;18.08;100.00
29839;BME280;18669;53.356;-1.464;2022-08-01T07:43:28;100926.06;;;18.22;97.29
29839;BME280;18669;53.356;-1.464;2022-08-01T07:45:55;100925.69;;;18.30;94.33
29839;BME280;18669;53.356;-1.464;2022-08-01T07:48:22;100927.31;;;18.52;97.17
29839;BME280;18669;53.356;-1.464;2022-08-01T07:50:50;100927.31;;;18.69;88.95
29839;BME280;18669;53.356;-1.464;2022-08-01T07:53:16;100927.09;;;18.91;86.23
29839;BME280;18669;53.356;-1.464;2022-08-01T07:55:42;100916.22;;;19.14;80.59
29839;BME280;18669;53.356;-1.464;2022-08-01T07:58:08;100909.72;;;19.53;89.94
29839;BME280;18669;53.356;-1.464;2022-08-01T08:00:34;100904.28;;;19.88;83.80
29839;BME280;18669;53.356;-1.464;2022-08-01T08:03:02;100908.41;;;20.42;84.10
29839;BME280;18669;53.356;-1.464;2022-08-01T08:05:28;100904.47;;;20.80;78.65
29839;BME280;18669;53.356;-1.464;2022-08-01T08:07:54;100891.34;;;21.20;69.07
29839;BME280;18669;53.356;-1.464;2022-08-01T08:10:21;100900.63;;;21.72;66.26
29839;BME280;18669;53.356;-1.464;2022-08-01T08:12:47;100891.69;;;22.15;61.38
29839;BME280;18669;53.356;-1.464;2022-08-01T08:15:14;100891.03;;;22.67;54.48
29839;BME280;18669;53.356;-1.464;2022-08-01T08:17:40;100902.19;;;22.86;55.82
29839;BME280;18669;53.356;-1.464;2022-08-01T08:20:08;100895.88;;;23.00;53.55
29839;BME280;18669;53.356;-1.464;2022-08-01T08:22:34;100889.69;;;23.26;53.98
29839;BME280;18669;53.356;-1.464;2022-08-01T08:25:00;100894.09;;;23.39;51.60
29839;BME280;18669;53.356;-1.464;2022-08-01T08:27:27;100885.59;;;23.96;52.43
29839;BME280;18669;53.356;-1.464;2022-08-01T08:29:53;100888.50;;;24.30;50.49
29839;BME280;18669;53.356;-1.464;2022-08-01T08:32:19;100887.53;;;24.31;48.96
29839;BME280;18669;53.356;-1.464;2022-08-01T08:34:45;100895.59;;;24.31;48.20
29839;BME280;18669;53.356;-1.464;2022-08-01T08:37:12;100887.09;;;24.37;47.29
29839;BME280;18669;53.356;-1.464;2022-08-01T08:39:38;100888.03;;;24.85;47.61
29839;BME280;18669;53.356;-1.464;2022-08-01T08:42:06;100878.19;;;25.31;46.23
29839;BME280;18669;53.356;-1.464;2022-08-01T08:44:32;100885.50;;;25.97;44.99
29839;BME280;18669;53.356;-1.464;2022-08-01T08:47:02;100882.25;;;26.26;43.79
29839;BME280;18669;53.356;-1.464;2022-08-01T08:49:32;100879.34;;;26.18;42.35
29839;BME280;18669;53.356;-1.464;2022-08-01T08:52:01;100881.59;;;26.13;43.68
29839;BME280;18669;53.356;-1.464;2022-08-01T08:54:29;100883.69;;;26.42;41.70
29839;BME280;18669;53.356;-1.464;2022-08-01T08:56:56;100882.03;;;26.50;41.88
29839;BME280;18669;53.356;-1.464;2022-08-01T08:59:23;100876.81;;;26.91;41.44
29839;BME280;18669;53.356;-1.464;2022-08-01T09:01:50;100883.59;;;26.86;39.96
29839;BME280;18669;53.356;-1.464;2022-08-01T09:04:17;100877.13;;;26.77;40.52
29839;BME280;18669;53.356;-1.464;2022-08-01T09:06:43;100876.13;;;27.20;40.24
29839;BME280;18669;53.356;-1.464;2022-08-01T09:09:12;100882.03;;;27.35;38.80
29839;BME280;18669;53.356;-1.464;2022-08-01T09:11:38;100882.03;;;27.35;38.53
29839;BME280;18669;53.356;-1.464;2022-08-01T09:14:08;100881.78;;;27.79;38.62
29839;BME280;18669;53.356;-1.464;2022-08-01T09:16:36;100881.63;;;28.41;37.45
29839;BME280;18669;53.356;-1.464;2022-08-01T09:19:17;100880.06;;;28.78;37.05
29839;BME280;18669;53.356;-1.464;2022-08-01T09:21:58;100870.91;;;28.30;36.31
29839;BME280;18669;53.356;-1.464;2022-08-01T09:24:27;100877.59;;;28.16;37.69
29839;BME280;18669;53.356;-1.464;2022-08-01T09:26:54;100871.94;;;28.78;36.92
29839;BME280;18669;53.356;-1.464;2022-08-01T09:29:23;100860.97;;;29.27;36.15
29839;BME280;18669;53.356;-1.464;2022-08-01T09:31:50;100859.69;;;29.59;35.66
29839;BME280;18669;53.356;-1.464;2022-08-01T09:34:43;100870.16;;;29.07;35.48
29839;BME280;18669;53.356;-1.464;2022-08-01T09:37:12;100875.47;;;28.39;36.36
29839;BME280;18669;53.356;-1.464;2022-08-01T09:39:43;100882.75;;;27.68;37.21
29839;BME280;18669;53.356;-1.464;2022-08-01T09:42:26;100876.63;;;28.27;35.52
29839;BME280;18669;53.356;-1.464;2022-08-01T09:44:53;100880.06;;;28.49;35.40
29839;BME280;18669;53.356;-1.464;2022-08-01T09:47:19;100879.75;;;28.62;35.79
29839;BME280;18669;53.356;-1.464;2022-08-01T09:49:56;100868.88;;;29.01;36.21
29839;BME280;18669;53.356;-1.464;2022-08-01T09:52:24;100869.91;;;28.80;36.27
29839;BME280;18669;53.356;-1.464;2022-08-01T09:54:55;100872.09;;;29.14;34.94
29839;BME280;18669;53.356;-1.464;2022-08-01T09:57:22;100864.81;;;29.25;34.65
29839;BME280;18669;53.356;-1.464;2022-08-01T09:59:52;100863.94;;;29.62;34.03
29839;BME280;18669;53.356;-1.464;2022-08-01T10:04:53;100851.38;;;30.79;30.74
29839;BME280;18669;53.356;-1.464;2022-08-01T10:07:20;100860.88;;;30.03;32.71
29839;BME280;18669;53.356;-1.464;2022-08-01T10:09:46;100872.50;;;30.13;34.35
29839;BME280;18669;53.356;-1.464;2022-08-01T10:12:15;100862.06;;;29.90;33.32
29839;BME280;18669;53.356;-1.464;2022-08-01T10:14:43;100863.50;;;29.39;34.71
29839;BME280;18669;53.356;-1.464;2022-08-01T10:17:17;100865.81;;;29.61;33.69
29839;BME280;18669;53.356;-1.464;2022-08-01T10:19:43;100874.13;;;29.78;33.22
29839;BME280;18669;53.356;-1.464;2022-08-01T10:22:11;100877.50;;;29.24;34.89
29839;BME280;18669;53.356;-1.464;2022-08-01T10:24:44;100875.94;;;28.25;35.90
29839;BME280;18669;53.356;-1.464;2022-08-01T10:27:14;100870.19;;;27.27;37.79
29839;BME280;18669;53.356;-1.464;2022-08-01T10:32:15;100865.44;;;27.91;36.49
29839;BME280;18669;53.356;-1.464;2022-08-01T10:34:43;100874.19;;;28.63;34.94
29839;BME280;18669;53.356;-1.464;2022-08-01T10:37:09;100883.72;;;28.67;35.65
29839;BME280;18669;53.356;-1.464;2022-08-01T10:39:36;100872.81;;;29.26;35.02
29839;BME280;18669;53.356;-1.464;2022-08-01T10:42:02;100886.84;;;28.72;35.32
29839;BME280;18669;53.356;-1.464;2022-08-01T10:44:30;100875.69;;;27.87;37.15
29839;BME280;18669;53.356;-1.464;2022-08-01T10:47:04;100879.16;;;27.27;38.04
29839;BME280;18669;53.356;-1.464;2022-08-01T10:49:34;100869.50;;;28.16;37.17
29839;BME280;18669;53.356;-1.464;2022-08-01T10:52:02;100867.63;;;28.95;35.57
29839;BME280;18669;53.356;-1.464;2022-08-01T10:54:28;100858.84;;;30.41;32.71
29839;BME280;18669;53.356;-1.464;2022-08-01T10:56:59;100863.91;;;29.72;33.91
29839;BME280;18669;53.356;-1.464;2022-08-01T10:59:27;100865.22;;;28.13;36.63
29839;BME280;18669;53.356;-1.464;2022-08-01T11:02:04;100859.13;;;27.39;38.07
29839;BME280;18669;53.356;-1.464;2022-08-01T11:04:55;100859.09;;;27.30;37.91
29839;BME280;18669;53.356;-1.464;2022-08-01T11:07:24;100860.53;;;27.55;38.40
29839;BME280;18669;53.356;-1.464;2022-08-01T11:10:35;100856.50;;;29.92;35.00
29839;BME280;18669;53.356;-1.464;2022-08-01T11:13:02;100850.91;;;31.96;31.88
29839;BME280;18669;53.356;-1.464;2022-08-01T11:15:31;100843.19;;;30.71;33.13
29839;BME280;18669;53.356;-1.464;2022-08-01T11:17:59;100845.16;;;29.51;34.78
29839;BME280;18669;53.356;-1.464;2022-08-01T11:20:35;100855.13;;;28.55;36.91
29839;BME280;18669;53.356;-1.464;2022-08-01T11:38:43;100817.34;;;28.73;37.48
29839;BME280;18669;53.356;-1.464;2022-08-01T11:41:24;100814.22;;;30.17;35.28
29839;BME280;18669;53.356;-1.464;2022-08-01T11:44:03;100811.13;;;31.44;32.62
29839;BME280;18669;53.356;-1.464;2022-08-01T11:47:04;100801.56;;;30.97;33.25
29839;BME280;18669;53.356;-1.464;2022-08-01T11:52:09;100800.94;;;30.77;32.87
29839;BME280;18669;53.356;-1.464;2022-08-01T11:54:37;100796.53;;;30.13;34.33
29839;BME280;18669;53.356;-1.464;2022-08-01T11:57:06;100799.78;;;29.81;34.26
29839;BME280;18669;53.356;-1.464;2022-08-01T11:59:44;100793.44;;;29.44;37.21
29839;BME280;18669;53.356;-1.464;2022-08-01T12:02:25;100798.59;;;28.42;37.63
29839;BME280;18669;53.356;-1.464;2022-08-01T12:04:56;100808.28;;;28.25;36.25
29839;BME280;18669;53.356;-1.464;2022-08-01T12:07:24;100804.44;;;28.18;38.17
29839;BME280;18669;53.356;-1.464;2022-08-01T12:12:23;100793.28;;;29.36;35.56
29839;BME280;18669;53.356;-1.464;2022-08-01T12:14:57;100790.63;;;30.36;34.12
29839;BME280;18669;53.356;-1.464;2022-08-01T12:17:31;100788.41;;;31.53;32.41
29839;BME280;18669;53.356;-1.464;2022-08-01T12:20:00;100788.19;;;31.47;31.74
29839;BME280;18669;53.356;-1.464;2022-08-01T12:22:26;100784.66;;;31.63;31.97
29839;BME280;18669;53.356;-1.464;2022-08-01T12:24:53;100788.34;;;32.05;30.16
29839;BME280;18669;53.356;-1.464;2022-08-01T12:27:30;100785.72;;;30.58;32.59
29839;BME280;18669;53.356;-1.464;2022-08-01T12:29:58;100796.16;;;29.34;34.86
29839;BME280;18669;53.356;-1.464;2022-08-01T12:32:27;100785.47;;;29.05;35.25
29839;BME280;18669;53.356;-1.464;2022-08-01T12:34:55;100788.69;;;28.70;35.59
29839;BME280;18669;53.356;-1.464;2022-08-01T12:37:22;100786.34;;;28.38;36.69
29839;BME280;18669;53.356;-1.464;2022-08-01T12:39:49;100792.16;;;27.84;38.99
29839;BME280;18669;53.356;-1.464;2022-08-01T12:42:15;100780.00;;;27.49;38.98
29839;BME280;18669;53.356;-1.464;2022-08-01T12:44:44;100777.19;;;27.80;38.40
29839;BME280;18669;53.356;-1.464;2022-08-01T12:47:12;100768.75;;;28.71;36.01
29839;BME280;18669;53.356;-1.464;2022-08-01T12:49:41;100771.06;;;28.56;35.63
29839;BME280;18669;53.356;-1.464;2022-08-01T12:52:08;100767.56;;;28.26;37.14
29839;BME280;18669;53.356;-1.464;2022-08-01T12:55:03;100758.63;;;28.73;36.06
29839;BME280;18669;53.356;-1.464;2022-08-01T12:57:30;100761.44;;;28.14;36.29
29839;BME280;18669;53.356;-1.464;2022-08-01T13:02:47;100756.56;;;27.59;38.53
29839;BME280;18669;53.356;-1.464;2022-08-01T13:05:15;100748.34;;;27.90;37.75
29839;BME280;18669;53.356;-1.464;2022-08-01T13:07:47;100746.47;;;28.30;38.25
29839;BME280;18669;53.356;-1.464;2022-08-01T13:10:23;100745.59;;;28.10;38.47
29839;BME280;18669;53.356;-1.464;2022-08-01T13:12:52;100732.97;;;28.20;38.19
29839;BME280;18669;53.356;-1.464;2022-08-01T13:15:30;100744.31;;;28.43;37.05
29839;BME280;18669;53.356;-1.464;2022-08-01T13:18:00;100742.53;;;28.14;37.81
29839;BME280;18669;53.356;-1.464;2022-08-01T13:20:28;100740.78;;;27.94;38.98
29839;BME280;18669;53.356;-1.464;2022-08-01T13:22:55;100737.81;;;27.77;39.58
29839;BME280;18669;53.356;-1.464;2022-08-01T13:25:21;100738.06;;;27.54;37.50
29839;BME280;18669;53.356;-1.464;2022-08-01T13:27:48;100741.94;;;27.72;37.70